Time;durP1;ratioP1;P1;durP2;ratioP2;P2;SDS_P1;SDS_P2;PMS_P1;PMS_P2;Temp;Humidity;BMP_temperature;BMP_pressure;BME280_temperature;BME280_humidity;BME280_pressure;Samples;Min_cycle;Max_cycle;Signal;HPM_P1;HPM_P2
2024/01/02 00:00:22;;;;;;;53.22;35.03;;;;;;;7.12;88.55;101294.31;4994375;28;20422;-80
2024/01/02 00:02:50;;;;;;;55.50;34.25;;;;;;;6.87;88.20;101250.13;4986044;28;20597;-81
2024/01/02 00:05:19;;;;;;;62.70;35.35;;;;;;;7.09;88.52;101305.06;4963534;28;20283;-81
2024/01/02 00:07:46;;;;;;;59.53;34.88;;;;;;;7.08;88.71;101304.22;4967526;28;20053;-81
2024/01/02 00:10:13;;;;;;;53.40;35.72;;;;;;;7.13;88.83;101301.28;4991469;28;20269;-81
2024/01/02 00:12:39;;;;;;;60.30;36.53;;;;;;;7.03;88.94;101296.59;4991419;28;20319;-81
2024/01/02 00:15:07;;;;;;;51.22;33.13;;;;;;;6.54;89.29;101225.75;4999471;28;20079;-81
2024/01/02 00:17:34;;;;;;;55.13;34.47;;;;;;;6.86;89.17;101294.16;4987856;28;20103;-81
2024/01/02 00:20:01;;;;;;;55.65;35.30;;;;;;;6.88;89.24;101287.00;4993144;28;20052;-81
2024/01/02 00:22:28;;;;;;;54.60;35.22;;;;;;;6.73;89.72;101272.13;4989410;28;20113;-80
2024/01/02 00:24:56;;;;;;;57.60;33.72;;;;;;;7.03;89.43;101308.94;4968905;28;20313;-79
2024/01/02 00:27:24;;;;;;;62.33;35.78;;;;;;;6.95;88.83;101301.50;4943445;28;20054;-80
2024/01/02 00:29:59;;;;;;;65.28;35.40;;;;;;;6.95;89.26;101301.50;4921365;28;20042;-81
2024/01/02 00:32:27;;;;;;;58.30;35.75;;;;;;;6.86;89.76;101304.72;4914174;28;20389;-81
2024/01/02 00:34:54;;;;;;;60.05;34.75;;;;;;;6.84;89.66;101286.34;4944120;28;20054;-81
2024/01/02 00:37:21;;;;;;;58.30;35.75;;;;;;;6.97;89.20;101315.47;4964812;28;20046;-81
2024/01/02 00:39:51;;;;;;;58.67;35.65;;;;;;;6.63;90.22;101287.69;4965679;28;20050;-80
2024/01/02 00:42:24;;;;;;;55.58;34.53;;;;;;;6.72;90.48;101281.81;4938676;28;20047;-80
2024/01/02 00:44:50;;;;;;;52.53;35.00;;;;;;;6.85;91.00;101308.31;4971432;28;20153;-80
2024/01/02 00:47:21;;;;;;;55.45;33.70;;;;;;;6.79;90.70;101292.84;4969103;28;20076;-80
2024/01/02 00:49:48;;;;;;;49.50;32.40;;;;;;;7.02;89.69;101305.47;4972212;28;20132;-80
2024/01/02 00:52:16;;;;;;;52.10;33.38;;;;;;;6.97;88.44;101291.72;4966509;28;20133;-81
2024/01/02 00:54:44;;;;;;;52.40;31.52;;;;;;;6.89;89.01;101293.97;5003053;28;20133;-81
2024/01/02 00:57:11;;;;;;;51.20;33.53;;;;;;;6.52;89.25;101240.84;5004844;28;20052;-80
2024/01/02 00:59:38;;;;;;;50.75;32.45;;;;;;;6.61;89.95;101255.25;4988694;28;20092;-81
2024/01/02 01:02:05;;;;;;;48.72;31.00;;;;;;;6.73;90.49;101261.56;4988300;28;20057;-81
2024/01/02 01:04:32;;;;;;;46.33;30.38;;;;;;;6.66;89.50;101253.19;4985033;28;20065;-78
2024/01/02 01:06:58;;;;;;;49.60;32.65;;;;;;;6.77;89.11;101273.59;4991628;28;20057;-80
2024/01/02 01:09:25;;;;;;;50.53;32.30;;;;;;;6.83;89.53;101281.16;4990857;28;20053;-81
2024/01/02 01:11:54;;;;;;;50.17;32.33;;;;;;;6.83;89.68;101270.59;4985553;28;20045;-82
2024/01/02 01:14:21;;;;;;;53.60;33.17;;;;;;;6.93;89.27;101290.19;4976248;28;20133;-81
2024/01/02 01:16:48;;;;;;;44.47;30.90;;;;;;;6.93;89.16;101287.56;4984157;28;20054;-81
2024/01/02 01:19:18;;;;;;;48.70;31.50;;;;;;;6.66;88.29;101242.63;4967960;28;20056;-80
2024/01/02 01:21:45;;;;;;;46.20;29.88;;;;;;;6.45;87.99;101205.22;4971322;28;20066;-82
2024/01/02 01:24:11;;;;;;;48.20;30.55;;;;;;;6.95;87.20;101288.31;4986974;28;20042;-82
2024/01/02 01:26:38;;;;;;;47.28;29.60;;;;;;;6.73;86.05;101243.09;4988112;28;20152;-80
2024/01/02 01:29:05;;;;;;;44.85;28.15;;;;;;;6.88;86.18;101296.72;4989888;28;20046;-81
2024/01/02 01:31:32;;;;;;;40.22;27.45;;;;;;;6.74;86.68;101282.56;4975878;28;20084;-81
2024/01/02 01:33:59;;;;;;;42.78;27.30;;;;;;;6.56;87.04;101273.16;4973226;28;20058;-82
2024/01/02 01:36:26;;;;;;;44.72;28.13;;;;;;;6.58;86.58;101280.03;4975642;28;20050;-81
2024/01/02 01:38:52;;;;;;;42.53;28.15;;;;;;;6.61;86.68;101285.13;4970684;28;20054;-81
2024/01/02 01:41:19;;;;;;;42.30;28.65;;;;;;;6.52;86.83;101280.41;4972740;28;20133;-82
2024/01/02 01:43:49;;;;;;;39.92;26.77;;;;;;;6.52;86.70;101290.94;4972087;28;20050;-81
2024/01/02 01:46:16;;;;;;;43.03;26.70;;;;;;;6.47;86.99;101287.75;4975576;28;20054;-81
2024/01/02 01:48:44;;;;;;;45.97;26.40;;;;;;;6.45;86.85;101281.72;4972674;28;20068;-81
2024/01/02 01:51:12;;;;;;;41.78;26.83;;;;;;;6.49;86.68;101288.50;4974847;28;20054;-80
2024/01/02 01:53:39;;;;;;;42.65;27.38;;;;;;;6.35;86.27;101277.94;4994506;28;20056;-81
2024/01/02 01:56:07;;;;;;;47.17;28.25;;;;;;;6.37;86.97;101292.72;5014045;28;20092;-82
2024/01/02 01:58:34;;;;;;;49.08;27.92;;;;;;;5.48;87.45;101152.19;5001329;28;20049;-82
2024/01/02 02:01:01;;;;;;;47.38;29.33;;;;;;;6.41;87.70;101309.25;4932446;28;20085;-81
2024/01/02 02:03:29;;;;;;;48.28;29.10;;;;;;;6.33;87.71;101288.56;4953537;28;20108;-81
2024/01/02 02:05:59;;;;;;;47.83;28.63;;;;;;;6.33;88.40;101290.38;4972071;28;20057;-80
2024/01/02 02:08:31;;;;;;;45.53;27.88;;;;;;;6.26;87.50;101267.94;4921980;28;20058;-80
2024/01/02 02:11:01;;;;;;;48.00;27.85;;;;;;;6.25;87.74;101274.16;4944479;28;20078;-81
2024/01/02 02:13:28;;;;;;;45.30;27.88;;;;;;;6.30;88.25;101280.00;4987258;28;20273;-80
2024/01/02 02:15:57;;;;;;;45.10;28.23;;;;;;;5.78;88.46;101199.59;5016384;28;20473;-81
2024/01/02 02:18:24;;;;;;;49.10;28.55;;;;;;;6.03;87.89;101224.53;5013221;28;20059;-80
2024/01/02 02:20:51;;;;;;;46.50;28.20;;;;;;;6.10;87.94;101244.31;5015438;28;20050;-80
2024/01/02 02:23:19;;;;;;;42.28;28.40;;;;;;;5.91;87.93;101207.63;5013926;28;20140;-80
2024/01/02 02:25:45;;;;;;;43.38;27.80;;;;;;;6.30;87.49;101274.75;5014302;28;20369;-80
2024/01/02 02:28:13;;;;;;;45.42;28.33;;;;;;;6.29;88.45;101275.69;5014902;28;20480;-80
2024/01/02 02:30:39;;;;;;;41.03;27.33;;;;;;;6.38;87.58;101285.66;4996797;28;20077;-80
2024/01/02 02:33:06;;;;;;;44.50;26.02;;;;;;;6.06;87.27;101229.59;4985337;28;20069;-80
2024/01/02 02:35:33;;;;;;;47.70;27.42;;;;;;;6.20;87.21;101254.19;4973031;28;20189;-79
2024/01/02 02:38:00;;;;;;;43.72;27.40;;;;;;;6.32;87.49;101283.41;4990176;28;20045;-80
2024/01/02 02:40:27;;;;;;;44.88;28.80;;;;;;;6.40;87.77;101281.16;4991740;28;20427;-81
2024/01/02 02:42:54;;;;;;;47.65;28.55;;;;;;;6.32;87.85;101278.97;4992652;28;20050;-80
2024/01/02 02:45:20;;;;;;;41.25;25.98;;;;;;;6.04;87.19;101236.75;4997118;28;20320;-80
2024/01/02 02:47:47;;;;;;;42.05;27.15;;;;;;;6.20;87.48;101267.38;4995032;28;20077;-80
2024/01/02 02:50:14;;;;;;;40.88;26.80;;;;;;;6.27;87.45;101288.13;4994094;28;20503;-80
2024/01/02 02:52:41;;;;;;;46.72;28.10;;;;;;;6.31;87.68;101285.22;4993694;28;20045;-80
2024/01/02 02:55:12;;;;;;;51.45;30.17;;;;;;;6.19;87.90;101268.34;5012104;28;20053;-78
2024/01/02 02:57:39;;;;;;;45.83;28.25;;;;;;;6.04;88.29;101253.41;5011610;28;20045;-81
2024/01/02 03:00:06;;;;;;;50.00;27.25;;;;;;;6.27;88.22;101274.94;5000116;28;20133;-81
2024/01/02 03:02:33;;;;;;;53.22;28.02;;;;;;;6.27;87.84;101269.66;4990470;28;20085;-80
2024/01/02 03:05:00;;;;;;;47.58;29.60;;;;;;;6.13;87.30;101246.75;4990923;28;20205;-79
2024/01/02 03:07:27;;;;;;;41.25;25.35;;;;;;;6.20;87.04;101280.56;4990760;28;20049;-80
2024/01/02 03:09:55;;;;;;;44.47;26.38;;;;;;;6.17;87.65;101286.03;4994377;28;20321;-79
2024/01/02 03:12:21;;;;;;;45.78;27.50;;;;;;;5.97;87.86;101257.34;4993360;28;20358;-81
2024/01/02 03:14:48;;;;;;;50.80;25.95;;;;;;;5.94;87.64;101241.72;5000345;28;20053;-81
2024/01/02 03:17:15;;;;;;;46.15;27.73;;;;;;;6.09;88.12;101282.13;5011775;28;20048;-81
2024/01/02 03:19:42;;;;;;;44.35;28.35;;;;;;;5.82;88.24;101238.00;5011477;28;20460;-81
2024/01/02 03:22:13;;;;;;;49.75;29.27;;;;;;;5.90;88.38;101250.75;4987013;28;20056;-80
2024/01/02 03:24:40;;;;;;;44.53;27.85;;;;;;;6.07;89.30;101294.56;5011291;28;20134;-80
2024/01/02 03:27:06;;;;;;;47.03;30.63;;;;;;;6.05;89.03;101292.03;5003661;28;20657;-80
2024/01/02 03:29:33;;;;;;;48.10;28.17;;;;;;;6.13;89.07;101289.78;4992585;28;20295;-80
2024/01/02 03:32:00;;;;;;;42.75;28.17;;;;;;;5.87;88.71;101258.81;4978318;28;20267;-79
2024/01/02 03:34:27;;;;;;;46.60;29.23;;;;;;;5.94;89.16;101273.34;4982132;28;20425;-80
2024/01/02 03:36:54;;;;;;;46.92;27.23;;;;;;;6.14;89.19;101291.50;4987069;28;20046;-80
2024/01/02 03:39:21;;;;;;;44.67;27.38;;;;;;;5.94;88.72;101257.53;4987150;28;20494;-80
2024/01/02 03:41:48;;;;;;;48.97;27.45;;;;;;;6.11;88.66;101280.25;4989437;28;20119;-79
2024/01/02 03:44:15;;;;;;;47.97;28.27;;;;;;;6.28;88.01;101303.00;4980757;28;20132;-80
2024/01/02 03:46:42;;;;;;;50.30;28.23;;;;;;;6.07;87.70;101269.06;4975842;28;20054;-79
2024/01/02 03:49:09;;;;;;;48.40;27.20;;;;;;;6.17;87.01;101280.75;4973647;28;20552;-78
2024/01/02 03:51:36;;;;;;;46.08;27.90;;;;;;;5.91;87.90;101265.59;4967274;28;20525;-80
2024/01/02 03:54:09;;;;;;;53.42;27.77;;;;;;;6.05;87.99;101276.22;4983704;28;20585;-80
2024/01/02 03:56:37;;;;;;;50.28;29.38;;;;;;;5.85;87.86;101242.22;4978510;28;20053;-79
2024/01/02 03:59:07;;;;;;;48.35;29.17;;;;;;;6.04;88.49;101282.41;4991035;28;20052;-80
2024/01/02 04:01:44;;;;;;;47.47;28.85;;;;;;;5.87;89.14;101259.63;4974181;28;20674;-80
2024/01/02 04:04:11;;;;;;;52.50;31.13;;;;;;;6.02;89.26;101281.66;4987908;28;20341;-81
2024/01/02 04:06:38;;;;;;;50.88;28.85;;;;;;;6.05;89.22;101284.13;4984862;28;20092;-79
2024/01/02 04:09:04;;;;;;;51.25;29.95;;;;;;;6.03;89.05;101258.78;4986436;28;20509;-82
2024/01/02 04:11:31;;;;;;;49.35;29.88;;;;;;;5.81;88.53;101222.28;4985256;28;20050;-79
2024/01/02 04:14:01;;;;;;;51.13;28.73;;;;;;;6.22;88.57;101282.28;4960976;28;20049;-80
2024/01/02 04:16:29;;;;;;;45.28;28.73;;;;;;;6.24;88.00;101285.66;4991832;28;20095;-80
2024/01/02 04:18:57;;;;;;;47.83;27.08;;;;;;;6.06;86.90;101251.53;5009628;28;20052;-80
2024/01/02 04:21:24;;;;;;;46.80;26.98;;;;;;;6.09;86.46;101250.50;5003494;28;20053;-79
2024/01/02 04:23:51;;;;;;;45.92;27.33;;;;;;;6.12;86.68;101274.91;5010870;28;20072;-82
2024/01/02 04:26:19;;;;;;;47.85;28.27;;;;;;;6.09;86.88;101263.69;5009459;28;20053;-81
2024/01/02 04:28:45;;;;;;;47.45;26.65;;;;;;;6.10;86.78;101268.88;5015404;28;20084;-82
2024/01/02 04:31:12;;;;;;;50.13;28.13;;;;;;;5.93;86.68;101251.38;4983010;28;20479;-82
2024/01/02 04:33:39;;;;;;;46.60;26.50;;;;;;;5.95;87.34;101269.78;5003406;28;20052;-81
2024/01/02 04:36:06;;;;;;;52.53;28.50;;;;;;;5.96;87.13;101255.66;4989447;28;20050;-81
2024/01/02 04:38:33;;;;;;;47.78;27.10;;;;;;;5.97;87.12;101273.16;4971032;28;20042;-81
2024/01/02 04:41:00;;;;;;;51.65;27.33;;;;;;;5.78;87.75;101247.88;5005589;28;20095;-82
2024/01/02 04:43:27;;;;;;;53.63;28.27;;;;;;;5.88;87.30;101268.41;4969646;28;20045;-82
2024/01/02 04:45:54;;;;;;;45.33;27.50;;;;;;;5.66;87.89;101227.50;4967194;28;20508;-81
2024/01/02 04:48:21;;;;;;;43.92;26.70;;;;;;;5.42;87.98;101186.81;4971199;28;20060;-81
2024/01/02 04:50:48;;;;;;;46.00;25.52;;;;;;;5.47;87.70;101177.69;4985912;28;20207;-80
2024/01/02 04:53:15;;;;;;;45.22;25.45;;;;;;;5.69;87.67;101227.31;4969252;28;20077;-82
2024/01/02 04:55:42;;;;;;;36.55;23.80;;;;;;;5.33;87.29;101167.94;5025703;28;20484;-81
2024/01/02 04:58:09;;;;;;;37.67;24.38;;;;;;;5.81;86.88;101230.19;5005459;28;20061;-80
2024/01/02 05:00:37;;;;;;;43.72;25.75;;;;;;;5.86;86.70;101243.94;4994377;28;20072;-82
2024/01/02 05:03:04;;;;;;;45.17;24.73;;;;;;;5.84;86.81;101248.44;4992538;28;20065;-81
2024/01/02 05:05:31;;;;;;;51.05;24.77;;;;;;;5.62;86.78;101204.06;4992170;28;20045;-81
2024/01/02 05:07:58;;;;;;;44.67;25.73;;;;;;;5.93;86.24;101255.81;4982967;28;20607;-80
2024/01/02 05:10:25;;;;;;;46.85;24.95;;;;;;;5.87;86.45;101261.44;4990751;28;20061;-81
2024/01/02 05:12:52;;;;;;;46.92;26.10;;;;;;;5.78;86.50;101258.41;4993011;28;20081;-81
2024/01/02 05:15:22;;;;;;;43.35;24.58;;;;;;;5.71;86.03;101243.06;5004767;28;20049;-80
2024/01/02 05:17:49;;;;;;;42.00;24.10;;;;;;;5.64;85.88;101233.81;5028663;28;20144;-82
2024/01/02 05:20:16;;;;;;;44.20;24.33;;;;;;;5.67;85.75;101247.63;5026828;28;20087;-82
2024/01/02 05:22:43;;;;;;;41.92;25.63;;;;;;;5.49;86.49;101238.19;4975131;28;20120;-81
2024/01/02 05:25:10;;;;;;;39.40;24.70;;;;;;;5.65;86.75;101252.13;5004716;28;20420;-81
2024/01/02 05:27:36;;;;;;;43.70;24.45;;;;;;;5.12;86.49;101177.06;5011207;28;20131;-81
2024/01/02 05:30:04;;;;;;;43.38;24.05;;;;;;;5.59;86.49;101251.66;4992006;28;20054;-81
2024/01/02 05:32:31;;;;;;;45.55;25.25;;;;;;;5.69;85.81;101261.56;4997948;28;20053;-81
2024/01/02 05:34:58;;;;;;;45.45;23.85;;;;;;;5.54;86.17;101233.50;4991947;28;20493;-81
2024/01/02 05:37:25;;;;;;;39.75;23.27;;;;;;;5.54;86.61;101250.13;4983601;28;20333;-81
2024/01/02 05:39:51;;;;;;;41.25;23.90;;;;;;;5.57;86.10;101241.22;4978845;28;20381;-82
2024/01/02 05:42:18;;;;;;;36.53;22.70;;;;;;;5.48;86.62;101244.38;4991976;28;20049;-82
2024/01/02 05:44:45;;;;;;;38.50;20.52;;;;;;;5.49;85.80;101252.19;5010886;28;20041;-80
2024/01/02 05:47:11;;;;;;;39.22;23.23;;;;;;;5.24;86.48;101229.06;4990122;28;20061;-82
2024/01/02 05:49:38;;;;;;;45.38;24.58;;;;;;;5.34;86.59;101246.03;4981737;28;20142;-81
2024/01/02 05:52:05;;;;;;;37.20;23.15;;;;;;;5.31;86.85;101250.59;5007572;28;20563;-81
2024/01/02 05:54:33;;;;;;;43.70;25.30;;;;;;;5.07;86.35;101208.06;5009260;28;20049;-82
2024/01/02 05:57:00;;;;;;;46.28;25.05;;;;;;;5.03;86.92;101206.56;5025549;28;20056;-82
2024/01/02 05:59:27;;;;;;;45.63;24.55;;;;;;;5.23;87.43;101234.41;4996170;28;20124;-81
2024/01/02 06:01:54;;;;;;;42.38;24.55;;;;;;;5.41;87.41;101269.34;4984624;28;20112;-81
2024/01/02 06:04:21;;;;;;;46.72;25.13;;;;;;;5.39;87.58;101287.03;4989628;28;20045;-81
2024/01/02 06:06:48;;;;;;;40.78;24.25;;;;;;;5.21;87.88;101247.63;5000714;28;20050;-81
2024/01/02 06:09:15;;;;;;;46.42;25.30;;;;;;;5.32;87.70;101261.06;4997861;28;20115;-80
2024/01/02 06:11:42;;;;;;;43.10;24.85;;;;;;;5.31;88.19;101256.69;4979954;28;20054;-81
2024/01/02 06:14:11;;;;;;;37.55;22.33;;;;;;;5.53;87.65;101273.91;4971685;28;20348;-81
2024/01/02 06:16:38;;;;;;;39.97;23.42;;;;;;;5.38;86.66;101248.47;5006919;28;20538;-82
2024/01/02 06:19:06;;;;;;;37.00;22.13;;;;;;;5.34;86.39;101243.38;4969348;28;20045;-82
2024/01/02 06:21:33;;;;;;;37.92;23.30;;;;;;;5.26;86.29;101235.06;4991021;28;20163;-81
2024/01/02 06:24:02;;;;;;;49.22;25.02;;;;;;;4.52;86.29;101125.19;4981921;28;20046;-81
2024/01/02 06:26:29;;;;;;;38.33;21.60;;;;;;;5.38;86.22;101274.81;4978965;28;20049;-82
2024/01/02 06:28:56;;;;;;;41.63;22.83;;;;;;;5.09;86.42;101227.25;4970532;28;20104;-82
2024/01/02 06:31:23;;;;;;;41.15;24.33;;;;;;;5.43;86.19;101276.22;4982637;28;20112;-81
2024/01/02 06:33:51;;;;;;;39.97;22.50;;;;;;;5.47;85.49;101282.19;4977830;28;20057;-81
2024/01/02 06:36:18;;;;;;;37.75;23.48;;;;;;;5.44;85.85;101279.75;4980017;28;20517;-82
2024/01/02 06:38:44;;;;;;;36.70;23.55;;;;;;;5.54;85.81;101288.81;4982395;28;20517;-79
2024/01/02 06:41:11;;;;;;;42.03;24.40;;;;;;;5.52;85.77;101280.97;4996237;28;20259;-82
2024/01/02 06:43:41;;;;;;;39.55;24.33;;;;;;;5.40;86.35;101251.88;4993048;28;20042;-81
2024/01/02 06:46:11;;;;;;;43.42;23.27;;;;;;;5.61;86.07;101277.00;5015319;28;20049;-81
2024/01/02 06:48:39;;;;;;;39.67;22.77;;;;;;;5.63;86.05;101280.38;4987279;28;20050;-81
2024/01/02 06:51:06;;;;;;;44.30;23.88;;;;;;;5.61;85.32;101282.25;4978917;28;20212;-81
2024/01/02 06:53:33;;;;;;;39.53;22.65;;;;;;;5.31;84.44;101243.53;4974689;28;20057;-82
2024/01/02 06:56:00;;;;;;;40.00;22.95;;;;;;;5.66;84.84;101296.00;5021946;28;20408;-81
2024/01/02 06:58:26;;;;;;;38.83;22.45;;;;;;;5.64;84.75;101300.50;5013128;28;20503;-81
2024/01/02 07:00:53;;;;;;;36.53;21.25;;;;;;;5.47;84.96;101258.50;4987221;28;20053;-82
2024/01/02 07:03:21;;;;;;;34.47;21.70;;;;;;;5.66;84.94;101285.47;5002916;28;20164;-81
2024/01/02 07:05:48;;;;;;;38.65;22.65;;;;;;;5.62;84.69;101289.22;5010139;28;20497;-81
2024/01/02 07:08:15;;;;;;;36.33;21.33;;;;;;;5.27;84.42;101234.13;5005792;28;20449;-81
2024/01/02 07:10:42;;;;;;;36.05;22.10;;;;;;;5.23;84.40;101237.88;5014997;28;20049;-82
2024/01/02 07:13:08;;;;;;;41.75;22.92;;;;;;;5.58;85.07;101295.56;4979763;28;20838;-81
2024/01/02 07:15:35;;;;;;;35.97;22.85;;;;;;;5.53;84.76;101289.72;5003900;28;20053;-79
2024/01/02 07:18:04;;;;;;;39.47;22.38;;;;;;;5.51;84.70;101287.19;5013994;28;20045;-81
2024/01/02 07:20:31;;;;;;;38.45;23.63;;;;;;;5.53;84.65;101297.63;5011584;28;20049;-80
2024/01/02 07:22:58;;;;;;;32.90;21.40;;;;;;;5.66;85.13;101310.97;5011237;28;20478;-80
2024/01/02 07:25:25;;;;;;;35.40;22.73;;;;;;;5.71;84.32;101324.72;5009647;28;20053;-80
2024/01/02 07:27:52;;;;;;;41.30;23.98;;;;;;;5.74;84.05;101327.19;5011433;28;20061;-81
2024/01/02 07:30:20;;;;;;;38.35;22.90;;;;;;;5.65;84.37;101293.44;5009962;28;20405;-79
2024/01/02 07:32:46;;;;;;;39.40;23.30;;;;;;;5.79;84.34;101323.34;5015976;28;20057;-80
2024/01/02 07:35:14;;;;;;;36.00;22.30;;;;;;;5.64;84.33;101300.50;5008214;28;20150;-80
2024/01/02 07:37:41;;;;;;;37.85;23.40;;;;;;;5.70;84.48;101325.66;5010106;28;20132;-80
2024/01/02 07:40:08;;;;;;;39.53;22.15;;;;;;;5.72;84.38;101327.25;5012691;28;20472;-81
2024/01/02 07:42:35;;;;;;;40.38;24.02;;;;;;;5.77;84.05;101330.47;4993788;28;20133;-80
2024/01/02 07:45:02;;;;;;;43.22;23.88;;;;;;;5.77;84.00;101325.19;4993100;28;20143;-80
2024/01/02 07:47:29;;;;;;;45.83;24.83;;;;;;;5.54;83.89;101301.97;4993464;28;20481;-81
2024/01/02 07:49:57;;;;;;;48.70;25.48;;;;;;;5.59;85.06;101305.19;4995966;28;20376;-81
2024/01/02 07:52:24;;;;;;;45.13;25.38;;;;;;;5.66;84.90;101317.09;4990115;28;20046;-80
2024/01/02 07:54:50;;;;;;;41.47;22.40;;;;;;;5.56;85.23;101311.50;5004012;28;20129;-80
2024/01/02 07:57:19;;;;;;;45.15;23.52;;;;;;;5.71;84.38;101330.00;4976483;28;20046;-80
2024/01/02 07:59:46;;;;;;;46.90;23.25;;;;;;;5.66;84.23;101322.34;4973507;28;20050;-80
2024/01/02 08:02:13;;;;;;;35.13;21.85;;;;;;;5.49;84.59;101314.56;4973353;28;20081;-80
2024/01/02 08:04:40;;;;;;;35.03;21.95;;;;;;;5.61;84.71;101327.03;4974229;28;20082;-80
2024/01/02 08:07:08;;;;;;;39.20;21.48;;;;;;;5.61;84.97;101336.69;4972283;28;20061;-80
2024/01/02 08:09:35;;;;;;;37.03;21.83;;;;;;;5.58;84.63;101335.09;4968804;28;20046;-80
2024/01/02 08:12:02;;;;;;;35.60;21.33;;;;;;;5.57;84.85;101346.56;4976504;28;20755;-80
2024/01/02 08:14:29;;;;;;;32.35;20.60;;;;;;;5.57;84.48;101333.41;4981815;28;20055;-80
2024/01/02 08:16:56;;;;;;;32.60;19.90;;;;;;;5.56;83.93;101316.75;5013648;28;20057;-81
2024/01/02 08:19:23;;;;;;;30.75;20.30;;;;;;;5.69;84.00;101332.72;5011881;28;20083;-80
2024/01/02 08:21:49;;;;;;;38.47;20.98;;;;;;;5.50;83.57;101290.75;4988107;28;20136;-80
2024/01/02 08:24:17;;;;;;;38.20;21.90;;;;;;;5.73;83.31;101334.25;5012513;28;20405;-82
2024/01/02 08:26:44;;;;;;;37.10;22.60;;;;;;;5.60;82.70;101301.63;4986230;28;20046;-80
2024/01/02 08:29:11;;;;;;;40.00;22.17;;;;;;;5.70;83.29;101326.50;4975435;28;20046;-80
2024/01/02 08:31:38;;;;;;;38.90;22.50;;;;;;;5.56;83.84;101300.09;4982273;28;20429;-80
2024/01/02 08:34:05;;;;;;;35.63;22.67;;;;;;;5.75;83.36;101316.56;4993580;28;20535;-80
2024/01/02 08:36:32;;;;;;;36.45;22.25;;;;;;;5.71;82.68;101308.91;4993630;28;20260;-80
2024/01/02 08:38:59;;;;;;;43.22;21.15;;;;;;;5.74;82.98;101306.94;4998294;28;20053;-80
2024/01/02 08:41:26;;;;;;;28.92;20.08;;;;;;;5.78;82.67;101311.09;4993818;28;20054;-81
2024/01/02 08:43:52;;;;;;;30.40;19.55;;;;;;;5.65;83.10;101296.94;4983691;28;20244;-79
2024/01/02 08:46:19;;;;;;;32.42;19.27;;;;;;;5.82;82.64;101305.66;4973307;28;20125;-80
2024/01/02 08:48:46;;;;;;;33.13;19.90;;;;;;;5.78;82.24;101299.72;4976215;28;20660;-80
2024/01/02 08:51:13;;;;;;;35.35;19.65;;;;;;;5.88;81.88;101305.31;4973139;28;20070;-78
2024/01/02 08:53:39;;;;;;;29.77;19.13;;;;;;;5.63;81.42;101261.94;4987388;28;20049;-80
2024/01/02 08:56:07;;;;;;;28.10;17.95;;;;;;;5.88;81.54;101300.03;5013410;28;20049;-80
2024/01/02 08:58:34;;;;;;;29.15;19.10;;;;;;;5.87;81.15;101293.06;5012323;28;20037;-81
2024/01/02 09:01:01;;;;;;;33.47;19.45;;;;;;;5.85;81.24;101284.38;5013217;28;20131;-81
2024/01/02 09:03:30;;;;;;;37.47;21.15;;;;;;;5.66;81.14;101251.22;5010058;28;20428;-82
2024/01/02 09:05:57;;;;;;;30.77;18.65;;;;;;;5.98;81.44;101295.97;5011205;28;20292;-82
2024/01/02 09:08:25;;;;;;;31.60;20.23;;;;;;;5.81;81.62;101256.53;5009071;28;20089;-81
2024/01/02 09:10:51;;;;;;;32.80;21.20;;;;;;;5.98;81.25;101280.16;5007772;28;20064;-79
2024/01/02 09:13:19;;;;;;;32.30;20.05;;;;;;;5.91;81.41;101266.44;4971708;28;20122;-81
2024/01/02 09:15:46;;;;;;;31.83;20.65;;;;;;;6.03;81.14;101280.72;5001141;28;20053;-77
2024/01/02 09:18:13;;;;;;;31.25;20.63;;;;;;;6.07;81.27;101278.72;5011046;28;20191;-81
2024/01/02 09:20:41;;;;;;;34.15;20.60;;;;;;;6.04;81.26;101257.84;5005211;28;20139;-82
2024/01/02 09:23:08;;;;;;;37.33;20.85;;;;;;;6.13;81.02;101273.97;5007940;28;20049;-82
2024/01/02 09:25:39;;;;;;;31.60;19.75;;;;;;;6.23;80.71;101268.13;5010478;28;20091;-81
2024/01/02 09:28:09;;;;;;;29.52;19.30;;;;;;;6.33;80.50;101253.44;5003480;28;20841;-82
2024/01/02 09:30:37;;;;;;;32.47;20.50;;;;;;;6.38;79.70;101273.34;5011582;28;20134;-81
2024/01/02 09:33:07;;;;;;;33.00;21.20;;;;;;;6.40;79.47;101275.88;5005163;28;20087;-83
2024/01/02 09:35:36;;;;;;;36.58;21.73;;;;;;;6.05;79.70;101197.13;5010657;28;20119;-79
2024/01/02 09:38:04;;;;;;;31.85;19.38;;;;;;;6.37;79.47;101245.25;5008616;28;20081;-81
2024/01/02 09:40:35;;;;;;;34.15;19.85;;;;;;;6.64;79.76;101282.28;5008350;28;20555;-82
2024/01/02 09:43:40;;;;;;;36.58;24.65;;;;;;;6.62;78.33;101270.97;4992797;28;20057;-81
2024/01/02 09:46:16;;;;;;;32.72;20.45;;;;;;;6.55;77.83;101243.31;4967397;28;20042;-79
2024/01/02 09:48:55;;;;;;;32.83;20.73;;;;;;;6.82;78.32;101266.25;4988979;28;20081;-80
2024/01/02 09:51:50;;;;;;;31.73;20.08;;;;;;;6.86;77.35;101262.47;4993220;28;20053;-80
2024/01/02 09:54:16;;;;;;;33.03;19.85;;;;;;;6.99;77.57;101255.50;5012495;28;20489;-81
2024/01/02 09:57:03;;;;;;;35.08;20.65;;;;;;;6.75;77.00;101226.22;5009088;28;20567;-82
2024/01/02 09:59:59;;;;;;;34.67;19.55;;;;;;;6.94;76.82;101260.22;5008048;28;20155;-82
2024/01/02 10:02:46;;;;;;;32.38;18.05;;;;;;;6.40;75.79;101170.38;5013577;28;20107;-81
2024/01/02 10:05:33;;;;;;;30.45;20.00;;;;;;;6.98;76.13;101277.53;5012216;28;20500;-81
2024/01/02 10:08:16;;;;;;;33.25;20.85;;;;;;;6.87;77.12;101264.19;5013116;28;20490;-81
2024/01/02 10:11:00;;;;;;;31.60;19.67;;;;;;;6.66;77.15;101228.59;5017792;28;20413;-80
2024/01/02 10:13:48;;;;;;;32.70;21.02;;;;;;;6.75;77.06;101238.56;4999461;28;20413;-81
2024/01/02 10:16:34;;;;;;;36.28;21.58;;;;;;;6.77;77.11;101220.81;5011661;28;20053;-81
2024/01/02 10:19:17;;;;;;;36.35;20.15;;;;;;;6.98;76.89;101251.16;5013280;28;20386;-80
2024/01/02 10:21:55;;;;;;;42.95;21.10;;;;;;;6.84;76.71;101222.13;5014595;28;20080;-80
2024/01/02 10:24:49;;;;;;;31.38;20.17;;;;;;;6.84;77.30;101227.41;5011129;28;20046;-80
2024/01/02 10:27:38;;;;;;;34.92;20.77;;;;;;;6.75;77.28;101217.47;5014378;28;20112;-81
2024/01/02 10:30:06;;;;;;;32.28;20.40;;;;;;;6.97;77.15;101244.19;5006171;28;20137;-80
2024/01/02 10:32:50;;;;;;;31.35;21.35;;;;;;;7.00;77.33;101243.97;5007971;28;20049;-79
2024/01/02 10:35:26;;;;;;;36.78;23.13;;;;;;;7.06;77.18;101243.59;4989799;28;20084;-80
2024/01/02 10:37:53;;;;;;;38.78;23.15;;;;;;;7.02;77.01;101252.66;4981915;28;20046;-80
2024/01/02 10:40:23;;;;;;;34.20;22.73;;;;;;;6.92;76.54;101226.94;4990237;28;20108;-81
2024/01/02 10:43:17;;;;;;;45.00;24.10;;;;;;;7.09;77.02;101241.69;4974901;28;20575;-81
2024/01/02 10:45:52;;;;;;;34.97;21.48;;;;;;;7.09;76.33;101231.13;4977030;28;20522;-80
2024/01/02 10:48:32;;;;;;;37.97;24.05;;;;;;;6.89;76.44;101204.22;4975609;28;20112;-81
2024/01/02 10:51:09;;;;;;;33.33;23.77;;;;;;;7.04;77.25;101223.53;4976179;28;20054;-82
2024/01/02 10:53:49;;;;;;;40.38;23.60;;;;;;;7.24;76.51;101241.56;4986817;28;20497;-79
2024/01/02 10:56:16;;;;;;;43.70;23.10;;;;;;;7.25;76.85;101248.53;5003462;28;20686;-80
2024/01/02 10:59:09;;;;;;;37.92;24.42;;;;;;;7.27;76.37;101237.88;4988700;28;20536;-80
2024/01/02 11:01:38;;;;;;;42.63;25.67;;;;;;;7.22;76.69;101210.91;4988061;28;20050;-82
2024/01/02 11:04:11;;;;;;;39.78;26.05;;;;;;;7.35;76.60;101216.25;4998080;28;20457;-80
2024/01/02 11:06:47;;;;;;;41.33;25.88;;;;;;;7.36;76.04;101216.16;5015862;28;20307;-80
2024/01/02 11:09:26;;;;;;;40.28;24.92;;;;;;;7.36;76.18;101181.81;4995342;28;20052;-80
2024/01/02 11:11:57;;;;;;;35.97;23.20;;;;;;;7.52;75.83;101199.28;5003394;28;20372;-80
2024/01/02 11:14:42;;;;;;;32.47;21.95;;;;;;;7.28;76.18;101139.19;4998281;28;20492;-80
2024/01/02 11:17:13;;;;;;;35.95;24.25;;;;;;;7.54;75.63;101190.31;4997225;28;20131;-80
2024/01/02 11:19:49;;;;;;;44.13;26.70;;;;;;;7.52;75.45;101181.63;4990460;28;20046;-81
2024/01/02 11:22:23;;;;;;;45.20;26.90;;;;;;;7.18;75.07;101124.91;4999740;28;20049;-79
2024/01/02 11:24:57;;;;;;;42.10;26.13;;;;;;;7.68;75.71;101199.94;5014979;28;20051;-80